Genoa Cristoforo Colombo Airport

LIMJ · Liguria, Italy

METAR history LIMJ · Genoa Cristoforo Colombo Airport

Below you see METARs of the last few days. Select a year to browse through older METARs, from the year 2007 onwards.

May 19, 2024

Time Code Weather Temp. Visibility Ceiling Wind METAR/SPECI
23:20
V
19 °C 10 km+ - 050° 050° 3 kt METAR LIMJ 192120Z 05003KT 310V090 CAVOK 19/14 Q1011
22:50
V
19 °C 10 km+ - 080° 080° 4 kt METAR LIMJ 192050Z 08004KT CAVOK 19/14 Q1011
22:20
V
20 °C 10 km+ - 020° 020° 3 kt METAR LIMJ 192020Z 02003KT CAVOK 20/15 Q1010
21:50
V
19 °C 10 km+ - 310° 310° 4 kt METAR LIMJ 191950Z 31004KT 280V340 CAVOK 19/16 Q1010
21:20
V
20 °C 10 km+ - 240° 240° 3 kt METAR LIMJ 191920Z 24003KT CAVOK 20/17 Q1010
20:50
V
20 °C 10 km+ - 250° 250° 4 kt METAR LIMJ 191850Z 25004KT CAVOK 20/17 Q1009
20:20
V
20 °C 10 km+ - 260° 260° 5 kt METAR LIMJ 191820Z 26005KT CAVOK 20/17 Q1009
19:50
V
20 °C 10 km+ - 280° 280° 5 kt METAR LIMJ 191750Z 28005KT CAVOK 20/16 Q1009
19:20
V
20 °C 10 km+ - 260° 260° 4 kt METAR LIMJ 191720Z 26004KT CAVOK 20/16 Q1009
18:50
V
21 °C 10 km+ - 220° 220° 3 kt METAR LIMJ 191650Z 22003KT CAVOK 21/15 Q1010
18:20
V
21 °C 10 km+ - Var Var 2 kt METAR LIMJ 191620Z VRB02KT CAVOK 21/15 Q1010
17:50
V
21 °C 10 km+ - 230° 230° 3 kt METAR LIMJ 191550Z 23003KT CAVOK 21/15 Q1010
17:20
V
21 °C 10 km+ - Var Var 2 kt METAR LIMJ 191520Z VRB02KT 9999 FEW035 21/15 Q1010
16:50
V
21 °C 10 km+ - 230° 230° 4 kt METAR LIMJ 191450Z 23004KT 9999 FEW035 21/15 Q1010
16:20
V
21 °C 10 km+ - 220° 220° 4 kt METAR LIMJ 191420Z 22004KT 9999 FEW035 21/15 Q1010
15:50
V
21 °C 10 km+ - 200° 200° 3 kt METAR LIMJ 191350Z 20003KT 9999 FEW035 21/15 Q1010
15:20
V
21 °C 10 km+ - Var Var 2 kt METAR LIMJ 191320Z VRB02KT 9999 FEW035 21/15 Q1011
14:50
V
21 °C 10 km+ - 240° 240° 2 kt METAR LIMJ 191250Z 24002KT 9999 FEW035 21/15 Q1011
14:20
V
21 °C 10 km+ - 220° 220° 4 kt METAR LIMJ 191220Z 22004KT 9999 FEW035 21/15 Q1011
13:50
V
21 °C 10 km+ - 250° 250° 5 kt METAR LIMJ 191150Z 25005KT 9999 FEW035 21/15 Q1011
13:20
V
21 °C 10 km+ - 270° 270° 5 kt METAR LIMJ 191120Z 27005KT 9999 FEW035 21/15 Q1011
12:50
V
21 °C 10 km+ - 270° 270° 5 kt METAR LIMJ 191050Z 27005KT 9999 FEW035 21/16 Q1012
12:20
V
20 °C 10 km+ - 230° 230° 5 kt METAR LIMJ 191020Z 23005KT 9999 FEW035 20/15 Q1012
11:50
V
20 °C 10 km+ - 250° 250° 7 kt METAR LIMJ 190950Z 25007KT 9999 FEW035 20/15 Q1012
11:20
V
20 °C 10 km+ - 240° 240° 6 kt METAR LIMJ 190920Z 24006KT 9999 FEW035 20/15 Q1012
10:50
V
21 °C 10 km+ - 180° 180° 4 kt METAR LIMJ 190850Z 18004KT 9999 FEW035 21/13 Q1012
10:20
V
22 °C 10 km+ - Var Var 4 kt METAR LIMJ 190820Z VRB04KT 9999 FEW035 22/12 Q1012
09:50
V
21 °C 10 km+ - 050° 050° 6 kt METAR LIMJ 190750Z 05006KT 350V080 9999 FEW035 21/13 Q1012
09:20
V
20 °C 10 km+ - 040° 040° 8 kt METAR LIMJ 190720Z 04008KT 340V060 9999 FEW035 20/13 Q1012
08:50
V
20 °C 10 km+ - 050° 050° 9 kt METAR LIMJ 190650Z 05009KT 9999 FEW035 20/13 Q1012
08:20
V
18 °C 10 km+ - 060° 060° 11 kt METAR LIMJ 190620Z 06011KT CAVOK 18/12 Q1012
07:50
V
18 °C 10 km+ - 050° 050° 10 kt METAR LIMJ 190550Z 05010KT CAVOK 18/12 Q1012
07:20
V
17 °C 10 km+ - 050° 050° 10 kt METAR LIMJ 190520Z 05010KT CAVOK 17/12 Q1012
06:50
V
17 °C 10 km+ - 050° 050° 10 kt METAR LIMJ 190450Z 05010KT CAVOK 17/12 Q1012
06:20
V
17 °C 10 km+ - 050° 050° 10 kt METAR LIMJ 190420Z 05010KT CAVOK 17/12 Q1011
05:50
V
17 °C 10 km+ - 050° 050° 10 kt METAR LIMJ 190350Z 05010KT CAVOK 17/12 Q1011
05:20
V
17 °C 10 km+ - 050° 050° 9 kt METAR LIMJ 190320Z 05009KT CAVOK 17/12 Q1011
04:50
V
17 °C 10 km+ - 040° 040° 9 kt METAR LIMJ 190250Z 04009KT CAVOK 17/12 Q1011
04:20
V
17 °C 10 km+ - 040° 040° 8 kt METAR LIMJ 190220Z 04008KT CAVOK 17/11 Q1011
03:50
V
17 °C 10 km+ - 050° 050° 9 kt METAR LIMJ 190150Z 05009KT CAVOK 17/11 Q1011
03:20
V
18 °C 10 km+ - 040° 040° 10 kt METAR LIMJ 190120Z 04010KT CAVOK 18/12 Q1011
02:50
V
18 °C 10 km+ - 040° 040° 7 kt METAR LIMJ 190050Z 04007KT CAVOK 18/12 Q1011
02:20
V
18 °C 10 km+ - 040° 040° 8 kt METAR LIMJ 190020Z 04008KT CAVOK 18/12 Q1012
01:50
V
18 °C 10 km+ - 040° 040° 9 kt METAR LIMJ 182350Z 04009KT CAVOK 18/12 Q1012
01:20
V
18 °C 10 km+ - 040° 040° 8 kt METAR LIMJ 182320Z 04008KT CAVOK 18/13 Q1012
00:50
V
18 °C 10 km+ - 070° 070° 7 kt METAR LIMJ 182250Z 07007KT 040V100 CAVOK 18/12 Q1012
00:20
V
18 °C 10 km+ - 080° 080° 5 kt METAR LIMJ 182220Z 08005KT 050V110 CAVOK 18/12 Q1012

May 18, 2024

Time Code Weather Temp. Visibility Ceiling Wind METAR/SPECI
23:50
V
18 °C 10 km+ - Var Var 2 kt METAR LIMJ 182150Z VRB02KT CAVOK 18/12 Q1012
23:20
V
19 °C 10 km+ - 010° 010° 3 kt METAR LIMJ 182120Z 01003KT 310V120 CAVOK 19/12 Q1012
22:50
V
19 °C 10 km+ - Var Var 2 kt METAR LIMJ 182050Z VRB02KT CAVOK 19/11 Q1011
22:20
V
20 °C 10 km+ - Var Var 2 kt METAR LIMJ 182020Z VRB02KT CAVOK 20/11 Q1011
21:50
V
20 °C 10 km+ - 060° 060° 5 kt METAR LIMJ 181950Z 06005KT CAVOK 20/11 Q1011
21:20
V
21 °C 10 km+ - 050° 050° 5 kt METAR LIMJ 181920Z 05005KT CAVOK 21/10 Q1011
20:50
V
21 °C 10 km+ - 050° 050° 4 kt METAR LIMJ 181850Z 05004KT 9999 FEW080 21/10 Q1011
20:20
V
22 °C 10 km+ - 040° 040° 3 kt METAR LIMJ 181820Z 04003KT 9999 SCT080 22/09 Q1011
19:50
V
20 °C 10 km+ - 270° 270° 6 kt METAR LIMJ 181750Z 27006KT 9999 SCT070 20/16 Q1011
19:20
V
21 °C 10 km+ - 260° 260° 4 kt METAR LIMJ 181720Z 26004KT 9999 SCT070 21/15 Q1011
18:50
V
21 °C 10 km+ - 270° 270° 6 kt METAR LIMJ 181650Z 27006KT 9999 SCT070 21/15 Q1011
18:20
V
21 °C 10 km+ - 230° 230° 3 kt METAR LIMJ 181620Z 23003KT 9999 FEW080 21/14 Q1011
17:50
V
21 °C 10 km+ - 180° 180° 3 kt METAR LIMJ 181550Z 18003KT CAVOK 21/14 Q1011
17:20
V
21 °C 10 km+ - 230° 230° 5 kt METAR LIMJ 181520Z 23005KT 9999 FEW070 21/14 Q1011
16:50
V
20 °C 10 km+ - 230° 230° 6 kt METAR LIMJ 181450Z 23006KT 9999 FEW070 20/14 Q1011
16:20
V
21 °C 10 km+ - 250° 250° 6 kt METAR LIMJ 181420Z 25006KT 9999 FEW070 21/13 Q1012
15:50
V
21 °C 10 km+ - 250° 250° 6 kt METAR LIMJ 181350Z 25006KT 9999 FEW060 21/13 Q1012
15:20
V
21 °C 10 km+ - 260° 260° 4 kt METAR LIMJ 181320Z 26004KT CAVOK 21/13 Q1012
14:50
V
20 °C 10 km+ - 200° 200° 3 kt METAR LIMJ 181250Z 20003KT CAVOK 20/13 Q1013
14:20
V
20 °C 10 km+ - 200° 200° 4 kt METAR LIMJ 181220Z 20004KT CAVOK 20/13 Q1013
13:50
V
20 °C 10 km+ - 210° 210° 4 kt METAR LIMJ 181150Z 21004KT CAVOK 20/14 Q1013
13:20
V
20 °C 10 km+ - 250° 250° 4 kt METAR LIMJ 181120Z 25004KT CAVOK 20/14 Q1013
12:50
V
20 °C 10 km+ - 250° 250° 5 kt METAR LIMJ 181050Z 25005KT 9999 FEW028 20/14 Q1013
12:20
V
20 °C 10 km+ - 260° 260° 5 kt METAR LIMJ 181020Z 26005KT 9999 FEW028 20/14 Q1013
11:50
V
19 °C 10 km+ - 250° 250° 5 kt METAR LIMJ 180950Z 25005KT 9999 FEW028 19/14 Q1013
11:20
V
19 °C 10 km+ - 250° 250° 5 kt METAR LIMJ 180920Z 25005KT 9999 FEW028 19/14 Q1013
10:50
V
19 °C 10 km+ - 260° 260° 5 kt METAR LIMJ 180850Z 26005KT 9999 FEW028 19/14 Q1013
10:20
V
19 °C 10 km+ - 250° 250° 4 kt METAR LIMJ 180820Z 25004KT 9999 FEW028 19/14 Q1013
09:50
V
19 °C 10 km+ - 250° 250° 4 kt METAR LIMJ 180750Z 25004KT 9999 FEW028 19/14 Q1013
09:20
V
19 °C 10 km+ - 240° 240° 2 kt METAR LIMJ 180720Z 24002KT 9999 FEW028 19/13 Q1013
08:50
V
19 °C 10 km+ - Var Var 1 kt METAR LIMJ 180650Z VRB01KT CAVOK 19/12 Q1013
08:20
V
19 °C 10 km+ - Var Var 2 kt METAR LIMJ 180620Z VRB02KT CAVOK 19/12 Q1013
07:50
V
17 °C 10 km+ - 040° 040° 3 kt METAR LIMJ 180550Z 04003KT 360V070 9999 FEW025 17/12 Q1013
07:20
V
16 °C 10 km+ - 030° 030° 5 kt METAR LIMJ 180520Z 03005KT 9999 FEW025 16/12 Q1013
06:50
V
16 °C 10 km+ - Var Var 3 kt METAR LIMJ 180450Z VRB03KT CAVOK 16/12 Q1013
06:20
V
15 °C 10 km+ - 040° 040° 4 kt METAR LIMJ 180420Z 04004KT CAVOK 15/12 Q1013
05:50
V
15 °C 10 km+ - 030° 030° 2 kt METAR LIMJ 180350Z 03002KT CAVOK 15/13 Q1013
05:20
V
15 °C 10 km+ - 070° 070° 4 kt METAR LIMJ 180320Z 07004KT 040V130 CAVOK 15/13 Q1013
04:50
V
15 °C 10 km+ - 030° 030° 2 kt METAR LIMJ 180250Z 03002KT CAVOK 15/13 Q1013
03:50
V
16 °C 10 km+ - Var Var 1 kt METAR LIMJ 180150Z VRB01KT CAVOK 16/13 Q1013
03:20
V
16 °C 10 km+ - 070° 070° 3 kt METAR LIMJ 180120Z 07003KT 040V100 CAVOK 16/13 Q1013
02:50
V
17 °C 10 km+ - 060° 060° 4 kt METAR LIMJ 180050Z 06004KT CAVOK 17/13 Q1013
02:20
V
17 °C 10 km+ - 070° 070° 3 kt METAR LIMJ 180020Z 07003KT 020V140 9999 FEW020 SCT035 17/13 Q1013
01:50
V
17 °C 10 km+ - 090° 090° 3 kt METAR LIMJ 172350Z 09003KT 9999 SCT018 17/13 Q1013
01:20
V
17 °C 10 km+ - 150° 150° 5 kt METAR LIMJ 172320Z 15005KT 080V200 9999 FEW018 SCT030 17/13 Q1014
00:50
V
18 °C 10 km+ - 180° 180° 6 kt METAR LIMJ 172250Z 18006KT 9999 FEW020 18/15 Q1013
00:20
V
18 °C 10 km+ - 170° 170° 6 kt METAR LIMJ 172220Z 17006KT 9999 FEW020 18/15 Q1013

May 17, 2024

Time Code Weather Temp. Visibility Ceiling Wind METAR/SPECI
23:50
V
18 °C 10 km+ - 170° 170° 6 kt METAR LIMJ 172150Z 17006KT 9999 FEW020 18/15 Q1013
23:20
V
18 °C 10 km+ - 150° 150° 8 kt METAR LIMJ 172120Z 15008KT 9999 FEW020 18/15 Q1013
22:50
V
18 °C 10 km+ - 150° 150° 8 kt METAR LIMJ 172050Z 15008KT 9999 FEW018 18/15 Q1013
22:20
V
18 °C 10 km+ - 150° 150° 9 kt METAR LIMJ 172020Z 15009KT 9999 FEW025 18/15 Q1013
21:50
V
18 °C 10 km+ - 150° 150° 9 kt METAR LIMJ 171950Z 15009KT 9999 FEW023 18/14 Q1013
21:20
V
18 °C 10 km+ - 140° 140° 9 kt METAR LIMJ 171920Z 14009KT 9999 SCT023 18/14 Q1012
20:50
V
18 °C 10 km+ - 160° 160° 7 kt METAR LIMJ 171850Z 16007KT 9999 SCT023 18/14 Q1012
20:20
V
18 °C 10 km+ - 130° 130° 7 kt METAR LIMJ 171820Z 13007KT 9999 SCT025 18/14 Q1012
19:50
V
18 °C 10 km+ - 140° 140° 8 kt METAR LIMJ 171750Z 14008KT 9999 SCT025 18/14 Q1012
19:20
V
18 °C 10 km+ - 150° 150° 7 kt METAR LIMJ 171720Z 15007KT 9999 SCT025 18/14 Q1012
18:50
V
18 °C 10 km+ - 150° 150° 8 kt METAR LIMJ 171650Z 15008KT 9999 SCT025 18/14 Q1012
18:20
V
18 °C 10 km+ - 140° 140° 9 kt METAR LIMJ 171620Z 14009KT 9999 SCT023 18/14 Q1012
17:50
V
18 °C 10 km+ - 140° 140° 10 kt METAR LIMJ 171550Z 14010KT 9999 FEW023 18/14 Q1012
16:50
V
18 °C 10 km+ - 140° 140° 8 kt METAR LIMJ 171450Z 14008KT 9999 SCT023 18/14 Q1012
16:20
V
18 °C 10 km+ - 150° 150° 7 kt METAR LIMJ 171420Z 15007KT 9999 SCT020 18/14 Q1012
15:50
V
18 °C 10 km+ - 170° 170° 7 kt METAR LIMJ 171350Z 17007KT 9999 SCT020 18/14 Q1012
15:20
V
18 °C 10 km+ - 170° 170° 7 kt METAR LIMJ 171320Z 17007KT 9999 SCT020 18/14 Q1012
14:50
V
18 °C 10 km+ - 160° 160° 9 kt METAR LIMJ 171250Z 16009KT 9999 SCT020 18/14 Q1012
14:20
V
18 °C 10 km+ - 160° 160° 10 kt METAR LIMJ 171220Z 16010KT 9999 SCT020 SCT029 18/14 Q1012
13:50
V
18 °C 10 km+ - 170° 170° 9 kt METAR LIMJ 171150Z 17009KT 9999 SCT019 SCT029 18/14 Q1012
13:20
V
18 °C 10 km+ - 170° 170° 10 kt METAR LIMJ 171120Z 17010KT 9999 SCT018 SCT030 18/13 Q1012
12:50
V
18 °C 10 km+ - 180° 180° 8 kt METAR LIMJ 171050Z 18008KT 9999 SCT018 SCT030 18/14 Q1011
12:20
V
18 °C 10 km+ - 180° 180° 9 kt METAR LIMJ 171020Z 18009KT 9999 SCT025 SCT038 18/13 Q1011
11:50
V
18 °C 10 km+ - 180° 180° 11 kt METAR LIMJ 170950Z 18011KT 9999 SCT022 SCT038 18/13 Q1011
11:20
V
17 °C 10 km+ - 180° 180° 10 kt METAR LIMJ 170920Z 18010KT 9999 SCT022 SCT038 17/12 Q1010
10:50
V
17 °C 10 km+ - 170° 170° 9 kt METAR LIMJ 170850Z 17009KT 9999 SCT022 17/12 Q1010
10:20
V
18 °C 10 km+ - 150° 150° 11 kt METAR LIMJ 170820Z 15011KT 9999 SCT025 18/12 Q1009
09:50
V
17 °C 10 km+ - 140° 140° 11 kt METAR LIMJ 170750Z 14011KT 9999 SCT023 17/12 Q1009
09:20
V
18 °C 10 km+ - 140° 140° 13 kt METAR LIMJ 170720Z 14013KT 9999 FEW025 18/12 Q1009
08:50
V
17 °C 10 km+ - 130° 130° 13 kt METAR LIMJ 170650Z 13013KT 9999 FEW025 17/12 Q1008
08:20
V
17 °C 10 km+ - 130° 130° 12 kt METAR LIMJ 170620Z 13012KT 9999 FEW025 17/12 Q1008
07:50
V
17 °C 10 km+ - 120° 120° 12 kt METAR LIMJ 170550Z 12012KT 9999 FEW030 17/12 Q1008
Report a change